Time,TemperatureF,DewpointF,PressureIn,WindDirection,WindDirectionDegrees,WindSpeedMPH,WindSpeedGustMPH,Humidity,HourlyPrecipIn,Conditions,Clouds,dailyrainin,SolarRadiationWatts/m^2,SoftwareType,DateUTC
2013-03-05 00:02:00,39.9,35.8,30.04,West,281,0.0,0.0,85,0.00,,,0.00,0.0,WeatherDisplay:10.37,2013-03-05 08:02:00,
2013-03-05 00:07:00,39.9,35.8,30.04,West,281,0.0,0.0,85,0.00,,,0.00,0.0,WeatherDisplay:10.37,2013-03-05 08:07:00,
2013-03-05 00:12:00,39.8,35.7,30.04,West,281,0.0,0.0,85,0.00,,,0.00,0.0,WeatherDisplay:10.37,2013-03-05 08:12:00,
2013-03-05 00:17:00,39.7,35.6,30.04,West,281,0.0,0.0,85,0.00,,,0.00,0.0,WeatherDisplay:10.37,2013-03-05 08:17:00,
2013-03-05 00:22:00,39.6,35.5,30.04,West,281,0.0,0.0,85,0.00,,,0.00,0.0,WeatherDisplay:10.37,2013-03-05 08:22:00,
2013-03-05 00:27:00,39.4,35.3,30.04,West,281,0.0,0.0,85,0.00,,,0.00,0.0,WeatherDisplay:10.37,2013-03-05 08:27:00,
2013-03-05 00:32:00,39.3,35.2,30.04,West,281,0.0,0.0,85,0.00,,,0.00,0.0,WeatherDisplay:10.37,2013-03-05 08:32:00,
2013-03-05 00:37:00,39.1,35.0,30.04,West,281,0.0,0.0,85,0.00,,,0.00,0.0,WeatherDisplay:10.37,2013-03-05 08:37:00,
2013-03-05 00:42:00,39.1,35.0,30.04,West,281,0.0,0.0,85,0.00,,,0.00,0.0,WeatherDisplay:10.37,2013-03-05 08:42:00,
2013-03-05 00:47:00,38.9,34.8,30.04,West,281,0.0,0.0,85,0.00,,,0.00,0.0,WeatherDisplay:10.37,2013-03-05 08:47:00,
2013-03-05 00:53:00,38.8,34.7,30.04,West,281,0.0,0.0,85,0.00,,,0.00,0.0,WeatherDisplay:10.37,2013-03-05 08:53:00,
2013-03-05 00:58:00,38.7,34.6,30.05,West,281,0.0,0.0,85,0.00,,,0.00,0.0,WeatherDisplay:10.37,2013-03-05 08:58:00,
2013-03-05 01:03:00,38.7,34.6,30.05,West,281,0.0,0.0,85,0.00,,,0.00,0.0,WeatherDisplay:10.37,2013-03-05 09:03:00,
2013-03-05 01:08:00,38.6,34.5,30.05,West,281,0.7,2.0,85,0.00,,,0.00,0.0,WeatherDisplay:10.37,2013-03-05 09:08:00,
2013-03-05 01:14:00,38.5,34.4,30.05,West,281,0.0,0.0,85,0.00,,,0.00,0.0,WeatherDisplay:10.37,2013-03-05 09:14:00,
2013-03-05 01:19:00,38.4,34.3,30.05,West,277,3.1,4.6,85,0.00,,,0.00,0.0,WeatherDisplay:10.37,2013-03-05 09:19:00,
2013-03-05 01:24:00,38.4,34.3,30.05,WNW,291,0.7,2.3,85,0.00,,,0.00,0.0,WeatherDisplay:10.37,2013-03-05 09:24:00,
2013-03-05 01:29:00,38.4,34.3,30.05,WNW,291,0.0,0.0,85,0.00,,,0.00,0.0,WeatherDisplay:10.37,2013-03-05 09:29:00,
2013-03-05 01:34:00,38.5,34.4,30.05,WNW,291,1.2,2.3,85,0.00,,,0.00,0.0,WeatherDisplay:10.37,2013-03-05 09:34:00,
2013-03-05 01:39:00,38.4,34.3,30.05,WNW,286,2.6,3.5,85,0.00,,,0.00,0.0,WeatherDisplay:10.37,2013-03-05 09:39:00,
2013-03-05 01:44:00,38.4,34.3,30.06,WNW,286,2.2,3.5,85,0.00,,,0.00,0.0,WeatherDisplay:10.37,2013-03-05 09:44:00,
2013-03-05 01:49:00,38.5,34.7,30.06,WNW,286,1.0,2.3,86,0.00,,,0.00,0.0,WeatherDisplay:10.37,2013-03-05 09:49:00,
2013-03-05 01:54:00,38.7,34.9,30.06,WNW,286,0.0,0.0,86,0.00,,,0.00,0.0,WeatherDisplay:10.37,2013-03-05 09:54:00,
2013-03-05 01:59:00,38.7,34.9,30.06,WNW,286,0.0,0.0,86,0.00,,,0.00,0.0,WeatherDisplay:10.37,2013-03-05 09:59:00,
2013-03-05 02:04:00,38.7,34.6,30.05,WNW,286,0.0,0.0,85,0.00,,,0.00,0.0,WeatherDisplay:10.37,2013-03-05 10:04:00,
2013-03-05 02:09:00,38.6,34.5,30.05,WNW,286,0.0,2.3,85,0.00,,,0.00,0.0,WeatherDisplay:10.37,2013-03-05 10:09:00,
2013-03-05 02:15:00,38.4,34.3,30.05,WNW,286,0.0,0.0,85,0.00,,,0.00,0.0,WeatherDisplay:10.37,2013-03-05 10:15:00,
2013-03-05 02:20:00,38.0,33.9,30.05,WNW,286,0.0,0.0,85,0.00,,,0.00,0.0,WeatherDisplay:10.37,2013-03-05 10:20:00,
2013-03-05 02:25:00,37.8,34.0,30.06,WNW,286,0.0,0.0,86,0.00,,,0.00,0.0,WeatherDisplay:10.37,2013-03-05 10:25:00,
2013-03-05 02:30:00,37.8,34.0,30.05,WNW,286,0.0,0.0,86,0.00,,,0.00,0.0,WeatherDisplay:10.37,2013-03-05 10:30:00,
2013-03-05 02:35:00,37.7,33.9,30.05,WNW,286,0.0,0.0,86,0.00,,,0.00,0.0,WeatherDisplay:10.37,2013-03-05 10:35:00,
2013-03-05 02:40:00,37.7,33.9,30.05,WNW,286,0.0,0.0,86,0.00,,,0.00,0.0,WeatherDisplay:10.37,2013-03-05 10:40:00,
2013-03-05 02:45:00,37.7,33.9,30.05,WNW,286,0.0,0.0,86,0.00,,,0.00,0.0,WeatherDisplay:10.37,2013-03-05 10:45:00,
2013-03-05 02:51:00,37.6,33.8,30.05,WNW,286,0.0,0.0,86,0.00,,,0.00,0.0,WeatherDisplay:10.37,2013-03-05 10:51:00,
2013-03-05 02:56:00,37.6,33.8,30.05,WNW,286,0.0,0.0,86,0.00,,,0.00,0.0,WeatherDisplay:10.37,2013-03-05 10:56:00,
2013-03-05 03:02:00,37.7,33.9,30.05,WNW,286,1.8,3.5,86,0.00,,,0.00,0.0,WeatherDisplay:10.37,2013-03-05 11:02:00,
2013-03-05 03:07:00,37.8,34.0,30.04,WNW,286,0.0,0.0,86,0.00,,,0.00,0.0,WeatherDisplay:10.37,2013-03-05 11:07:00,
2013-03-05 03:13:00,37.9,34.1,30.04,WNW,286,0.0,0.0,86,0.00,,,0.00,0.0,WeatherDisplay:10.37,2013-03-05 11:13:00,
2013-03-05 03:18:00,37.9,34.1,30.04,WNW,286,0.0,0.0,86,0.00,,,0.00,0.0,WeatherDisplay:10.37,2013-03-05 11:18:00,
2013-03-05 03:23:00,37.8,34.0,30.04,WNW,286,0.0,0.0,86,0.00,,,0.00,0.0,WeatherDisplay:10.37,2013-03-05 11:23:00,
2013-03-05 03:29:00,37.8,34.0,30.04,WNW,286,0.0,0.0,86,0.00,,,0.00,0.0,WeatherDisplay:10.37,2013-03-05 11:29:00,
2013-03-05 03:34:00,37.7,33.9,30.03,WNW,286,0.0,0.0,86,0.00,,,0.00,0.0,WeatherDisplay:10.37,2013-03-05 11:34:00,
2013-03-05 03:39:00,37.6,33.8,30.04,WNW,286,0.0,0.0,86,0.00,,,0.00,0.0,WeatherDisplay:10.37,2013-03-05 11:39:00,
2013-03-05 03:44:00,37.5,33.7,30.04,WNW,286,0.0,0.0,86,0.00,,,0.00,0.0,WeatherDisplay:10.37,2013-03-05 11:44:00,
2013-03-05 03:49:00,37.4,33.6,30.04,WNW,286,0.0,0.0,86,0.00,,,0.00,0.0,WeatherDisplay:10.37,2013-03-05 11:49:00,
2013-03-05 03:54:00,37.3,33.5,30.04,WNW,286,0.5,2.3,86,0.00,,,0.00,0.0,WeatherDisplay:10.37,2013-03-05 11:54:00,
2013-03-05 03:59:00,37.3,33.5,30.04,WNW,286,0.0,0.0,86,0.00,,,0.00,0.0,WeatherDisplay:10.37,2013-03-05 11:59:00,
2013-03-05 04:04:00,37.2,33.4,30.04,WNW,286,0.0,0.0,86,0.00,,,0.00,0.0,WeatherDisplay:10.37,2013-03-05 12:04:00,
2013-03-05 04:10:00,37.2,33.4,30.05,WNW,286,0.0,0.0,86,0.00,,,0.00,0.0,WeatherDisplay:10.37,2013-03-05 12:10:00,
2013-03-05 04:15:00,37.1,33.3,30.05,WNW,286,0.0,0.0,86,0.00,,,0.00,0.0,WeatherDisplay:10.37,2013-03-05 12:15:00,
2013-03-05 04:20:00,37.1,33.3,30.05,WNW,286,0.0,0.0,86,0.00,,,0.00,0.0,WeatherDisplay:10.37,2013-03-05 12:20:00,
2013-03-05 04:25:00,37.0,33.2,30.05,WNW,286,0.0,0.0,86,0.00,,,0.00,0.0,WeatherDisplay:10.37,2013-03-05 12:25:00,
2013-03-05 04:30:00,37.0,33.2,30.05,WNW,286,0.0,0.0,86,0.00,,,0.00,0.0,WeatherDisplay:10.37,2013-03-05 12:30:00,
2013-03-05 04:35:00,36.9,33.1,30.05,WNW,286,0.0,0.0,86,0.00,,,0.00,0.0,WeatherDisplay:10.37,2013-03-05 12:35:00,
2013-03-05 04:40:00,36.8,33.0,30.05,WNW,286,0.0,0.0,86,0.00,,,0.00,0.0,WeatherDisplay:10.37,2013-03-05 12:40:00,
2013-03-05 04:45:00,36.7,32.9,30.05,WNW,286,0.0,0.0,86,0.00,,,0.00,0.0,WeatherDisplay:10.37,2013-03-05 12:45:00,
2013-03-05 04:50:00,36.6,32.8,30.05,WNW,286,0.0,0.0,86,0.00,,,0.00,0.0,WeatherDisplay:10.37,2013-03-05 12:50:00,
2013-03-05 04:55:00,36.6,32.8,30.05,WNW,286,0.0,0.0,86,0.00,,,0.00,0.0,WeatherDisplay:10.37,2013-03-05 12:55:00,
2013-03-05 05:01:00,36.4,32.9,30.05,WNW,286,0.0,0.0,87,0.00,,,0.00,0.0,WeatherDisplay:10.37,2013-03-05 13:01:00,
2013-03-05 05:06:00,36.4,32.9,30.05,WNW,286,0.0,0.0,87,0.00,,,0.00,0.0,WeatherDisplay:10.37,2013-03-05 13:06:00,
2013-03-05 05:11:00,36.3,32.8,30.05,WNW,286,0.0,0.0,87,0.00,,,0.00,0.0,WeatherDisplay:10.37,2013-03-05 13:11:00,
2013-03-05 05:16:00,36.3,32.8,30.04,WNW,286,0.0,0.0,87,0.00,,,0.00,0.0,WeatherDisplay:10.37,2013-03-05 13:16:00,
2013-03-05 05:21:00,36.3,32.8,30.04,WNW,286,0.0,0.0,87,0.00,,,0.00,0.0,WeatherDisplay:10.37,2013-03-05 13:21:00,
2013-03-05 05:26:00,36.4,32.9,30.04,WNW,286,0.0,0.0,87,0.00,,,0.00,0.0,WeatherDisplay:10.37,2013-03-05 13:26:00,
2013-03-05 05:31:00,36.4,32.9,30.04,WNW,286,0.0,0.0,87,0.00,,,0.00,0.0,WeatherDisplay:10.37,2013-03-05 13:31:00,
2013-03-05 05:36:00,36.3,32.8,30.04,WNW,286,0.0,0.0,87,0.00,,,0.00,0.0,WeatherDisplay:10.37,2013-03-05 13:36:00,
2013-03-05 05:41:00,36.2,32.7,30.04,WNW,286,0.0,0.0,87,0.00,,,0.00,0.0,WeatherDisplay:10.37,2013-03-05 13:41:00,
2013-03-05 05:46:00,36.1,32.6,30.04,WNW,286,0.0,0.0,87,0.00,,,0.00,0.0,WeatherDisplay:10.37,2013-03-05 13:46:00,
2013-03-05 05:51:00,36.0,32.5,30.04,WNW,286,0.0,0.0,87,0.00,,,0.00,0.0,WeatherDisplay:10.37,2013-03-05 13:51:00,
2013-03-05 05:56:00,36.0,32.5,30.04,WNW,286,0.0,0.0,87,0.00,,,0.00,0.0,WeatherDisplay:10.37,2013-03-05 13:56:00,
2013-03-05 06:01:00,36.0,32.5,30.04,WNW,286,0.0,0.0,87,0.00,,,0.00,0.0,WeatherDisplay:10.37,2013-03-05 14:01:00,
2013-03-05 06:06:00,35.9,32.4,30.04,WNW,286,0.0,0.0,87,0.00,,,0.00,0.0,WeatherDisplay:10.37,2013-03-05 14:06:00,
2013-03-05 06:11:00,35.8,32.3,30.04,WNW,286,0.0,0.0,87,0.00,,,0.00,0.0,WeatherDisplay:10.37,2013-03-05 14:11:00,
2013-03-05 06:16:00,35.8,32.3,30.04,WNW,283,0.3,2.3,87,0.00,,,0.00,0.0,WeatherDisplay:10.37,2013-03-05 14:16:00,
2013-03-05 06:21:00,35.8,32.3,30.04,WNW,284,0.0,2.3,87,0.00,,,0.00,0.0,WeatherDisplay:10.37,2013-03-05 14:21:00,
2013-03-05 06:26:00,35.8,32.3,30.04,WNW,284,0.0,0.0,87,0.00,,,0.00,0.0,WeatherDisplay:10.37,2013-03-05 14:26:00,
2013-03-05 06:31:00,35.8,32.3,30.04,WNW,284,0.0,0.0,87,0.00,,,0.00,0.0,WeatherDisplay:10.37,2013-03-05 14:31:00,
2013-03-05 06:36:00,35.8,32.3,30.04,WNW,284,0.0,0.0,87,0.00,,,0.00,0.0,WeatherDisplay:10.37,2013-03-05 14:36:00,
2013-03-05 06:41:00,35.8,32.3,30.04,WNW,284,0.0,0.0,87,0.00,,,0.00,7.0,WeatherDisplay:10.37,2013-03-05 14:41:00,
2013-03-05 06:46:00,35.7,32.2,30.04,WNW,283,0.0,0.0,87,0.00,CLR,,0.00,9.0,WeatherDisplay:10.37,2013-03-05 14:46:00,
2013-03-05 06:51:00,35.7,32.2,30.04,WNW,283,1.4,2.3,87,0.00,SCT,,0.00,12.0,WeatherDisplay:10.37,2013-03-05 14:51:00,
2013-03-05 06:56:00,35.8,32.3,30.04,WNW,283,0.0,0.0,87,0.00,SCT,,0.00,16.0,WeatherDisplay:10.37,2013-03-05 14:56:00,
2013-03-05 07:01:00,35.9,32.7,30.04,WNW,283,2.2,3.5,88,0.00,SCT,,0.00,25.0,WeatherDisplay:10.37,2013-03-05 15:01:00,
2013-03-05 07:06:00,36.1,32.9,30.04,WNW,283,0.3,1.2,88,0.00,SCT,,0.00,32.0,WeatherDisplay:10.37,2013-03-05 15:06:00,
2013-03-05 07:11:00,36.3,33.1,30.03,WNW,283,0.8,2.3,88,0.00,BKN,,0.00,32.0,WeatherDisplay:10.37,2013-03-05 15:11:00,
2013-03-05 07:16:00,36.5,33.3,30.03,WNW,283,0.7,2.3,88,0.00,SCT,,0.00,42.0,WeatherDisplay:10.37,2013-03-05 15:16:00,
2013-03-05 07:21:00,36.7,33.5,30.03,WNW,283,0.0,0.0,88,0.00,SCT,,0.00,47.0,WeatherDisplay:10.37,2013-03-05 15:21:00,
2013-03-05 07:26:00,37.0,33.8,30.03,WNW,283,0.2,1.2,88,0.00,BKN,,0.00,46.0,WeatherDisplay:10.37,2013-03-05 15:26:00,
2013-03-05 07:31:00,37.1,33.9,30.03,WNW,283,0.6,2.3,88,0.00,BKN,,0.00,54.0,WeatherDisplay:10.37,2013-03-05 15:31:00,
2013-03-05 07:36:00,37.4,34.2,30.03,WNW,283,0.8,3.5,88,0.00,SCT,,0.00,67.0,WeatherDisplay:10.37,2013-03-05 15:36:00,
2013-03-05 07:41:00,37.9,34.7,30.03,North,355,3.4,3.5,88,0.00,CLR,,0.00,146.0,WeatherDisplay:10.37,2013-03-05 15:41:00,
2013-03-05 07:46:00,38.2,35.0,30.03,North,355,0.1,1.2,88,0.00,BKN,,0.00,76.0,WeatherDisplay:10.37,2013-03-05 15:46:00,
2013-03-05 07:51:00,38.5,35.3,30.03,NW,323,1.7,3.5,88,0.00,SCT,,0.00,98.0,WeatherDisplay:10.37,2013-03-05 15:51:00,
2013-03-05 07:56:00,39.0,35.7,30.03,NW,325,0.7,2.3,88,0.00,BKN,,0.00,86.0,WeatherDisplay:10.37,2013-03-05 15:56:00,
2013-03-05 08:01:00,39.4,36.1,30.03,NNW,328,1.0,2.3,88,0.00,SCT,,0.00,123.0,WeatherDisplay:10.37,2013-03-05 16:01:00,
2013-03-05 08:06:00,39.3,36.0,30.04,NNW,328,1.9,3.5,88,0.00,SCT,,0.00,100.0,WeatherDisplay:10.37,2013-03-05 16:06:00,
2013-03-05 08:11:00,40.4,37.1,30.04,SW,219,0.9,3.5,88,0.00,BKN,,0.00,98.0,WeatherDisplay:10.37,2013-03-05 16:11:00,
2013-03-05 08:16:00,42.7,39.7,30.04,South,179,4.2,5.8,89,0.00,BKN,,0.00,109.0,WeatherDisplay:10.37,2013-03-05 16:16:00,
2013-03-05 08:21:00,44.0,40.7,30.04,SW,215,4.9,8.1,88,0.00,BKN,,0.00,104.0,WeatherDisplay:10.37,2013-03-05 16:21:00,
2013-03-05 08:26:00,45.1,41.2,30.04,SSW,198,0.0,0.0,86,0.00,BKN,,0.00,113.0,WeatherDisplay:10.37,2013-03-05 16:26:00,
2013-03-05 08:31:00,45.4,40.8,30.03,SSE,167,4.9,6.9,84,0.00,BKN,,0.00,120.0,WeatherDisplay:10.37,2013-03-05 16:31:00,
2013-03-05 08:36:00,45.8,40.6,30.04,South,180,7.3,10.4,82,0.00,BKN,,0.00,123.0,WeatherDisplay:10.37,2013-03-05 16:36:00,
2013-03-05 08:41:00,46.1,40.3,30.04,South,172,4.4,9.2,80,0.00,BKN,,0.00,144.0,WeatherDisplay:10.37,2013-03-05 16:41:00,
2013-03-05 08:46:00,46.3,39.8,30.04,SSW,195,4.7,12.7,78,0.00,BKN,,0.00,137.0,WeatherDisplay:10.37,2013-03-05 16:46:00,
2013-03-05 08:51:00,46.5,39.7,30.04,SW,214,4.1,5.0,77,0.00,BKN,,0.00,153.0,WeatherDisplay:10.37,2013-03-05 16:51:00,
2013-03-05 08:56:00,46.7,39.5,30.04,South,172,2.4,4.6,76,0.00,BKN,,0.00,155.0,WeatherDisplay:10.37,2013-03-05 16:56:00,
2013-03-05 09:01:00,46.9,39.4,30.04,SSE,167,2.8,4.6,75,0.00,BKN,,0.00,174.0,WeatherDisplay:10.37,2013-03-05 17:01:00,
2013-03-05 09:06:00,47.0,39.1,30.04,West,272,3.6,6.9,74,0.00,BKN,,0.00,174.0,WeatherDisplay:10.37,2013-03-05 17:06:00,
2013-03-05 09:11:00,47.2,39.3,30.03,SSE,160,3.1,5.8,74,0.00,SCT,,0.00,209.0,WeatherDisplay:10.37,2013-03-05 17:11:00,
2013-03-05 09:16:00,47.2,39.0,30.03,NW,320,4.1,9.2,73,0.00,SCT,,0.00,214.0,WeatherDisplay:10.37,2013-03-05 17:16:00,
2013-03-05 09:21:00,47.4,39.2,30.03,ENE,66,4.6,6.9,73,0.00,SCT,,0.00,343.0,WeatherDisplay:10.37,2013-03-05 17:21:00,
2013-03-05 09:26:00,47.7,39.1,30.03,SE,130,0.9,5.8,72,0.00,SCT,,0.00,411.0,WeatherDisplay:10.37,2013-03-05 17:26:00,
2013-03-05 09:31:00,48.4,39.8,30.03,WSW,248,5.7,9.2,72,0.00,CLR,,0.00,371.0,WeatherDisplay:10.37,2013-03-05 17:31:00,
2013-03-05 09:36:00,48.7,40.1,30.03,WSW,257,0.9,2.3,72,0.00,FEW,,0.00,383.0,WeatherDisplay:10.37,2013-03-05 17:36:00,
2013-03-05 09:41:00,48.6,39.3,30.03,SSW,207,6.4,8.1,70,0.00,SCT,,0.00,352.0,WeatherDisplay:10.37,2013-03-05 17:41:00,
2013-03-05 09:46:00,49.1,39.7,30.02,SE,126,5.2,10.4,70,0.00,CLR,,0.00,682.0,WeatherDisplay:10.37,2013-03-05 17:46:00,
2013-03-05 09:51:00,49.1,39.4,30.02,ESE,117,2.0,4.6,69,0.00,CLR,,0.00,689.0,WeatherDisplay:10.37,2013-03-05 17:51:00,
2013-03-05 09:56:00,49.7,39.9,30.03,ESE,109,1.7,3.5,69,0.00,CLR,,0.00,715.0,WeatherDisplay:10.37,2013-03-05 17:56:00,
2013-03-05 10:01:00,50.1,39.9,30.03,SW,227,1.6,4.6,68,0.00,CLR,,0.00,689.0,WeatherDisplay:10.37,2013-03-05 18:01:00,
2013-03-05 10:06:00,49.7,39.6,30.02,SSE,152,1.7,11.5,68,0.00,FEW,,0.00,448.0,WeatherDisplay:10.37,2013-03-05 18:06:00,
2013-03-05 10:11:00,49.1,39.4,30.03,WSW,246,11.3,15.0,69,0.00,SCT,,0.00,355.0,WeatherDisplay:10.37,2013-03-05 18:11:00,
2013-03-05 10:16:00,48.8,39.4,30.02,SSW,213,4.2,9.2,70,0.00,SCT,,0.00,380.0,WeatherDisplay:10.37,2013-03-05 18:16:00,
2013-03-05 10:21:00,48.8,39.4,30.02,WSW,253,7.1,9.2,70,0.00,BKN,,0.00,281.0,WeatherDisplay:10.37,2013-03-05 18:21:00,
2013-03-05 10:26:00,48.6,39.3,30.02,SSW,196,4.7,6.9,70,0.00,BKN,,0.00,297.0,WeatherDisplay:10.37,2013-03-05 18:26:00,
2013-03-05 10:31:00,48.8,39.8,30.02,South,173,3.6,6.9,71,0.00,BKN,,0.00,239.0,WeatherDisplay:10.37,2013-03-05 18:31:00,
2013-03-05 10:36:00,48.6,39.3,30.02,ESE,115,8.9,13.8,70,0.00,BKN,,0.00,209.0,WeatherDisplay:10.37,2013-03-05 18:36:00,
2013-03-05 10:41:00,48.7,40.1,30.02,WNW,295,1.4,3.5,72,0.00,BKN,,0.00,202.0,WeatherDisplay:10.37,2013-03-05 18:41:00,
2013-03-05 10:46:00,48.9,39.9,30.02,SW,229,3.5,4.6,71,0.00,BKN,,0.00,183.0,WeatherDisplay:10.37,2013-03-05 18:46:00,
2013-03-05 10:51:00,48.8,39.8,30.02,SSW,207,4.5,6.9,71,0.00,BKN,,0.00,188.0,WeatherDisplay:10.37,2013-03-05 18:51:00,
2013-03-05 10:57:00,48.5,39.5,30.02,WSW,240,6.9,9.2,71,0.00,BKN,,0.00,246.0,WeatherDisplay:10.37,2013-03-05 18:57:00,
2013-03-05 11:03:00,48.5,39.9,30.01,South,184,1.1,1.2,72,0.00,BKN,,0.00,199.0,WeatherDisplay:10.37,2013-03-05 19:03:00,
2013-03-05 11:08:00,48.8,40.2,30.01,WNW,295,3.4,6.9,72,0.00,BKN,,0.00,230.0,WeatherDisplay:10.37,2013-03-05 19:08:00,
2013-03-05 11:13:00,48.8,40.2,30.01,SSW,204,1.8,3.5,72,0.00,BKN,,0.00,218.0,WeatherDisplay:10.37,2013-03-05 19:13:00,
2013-03-05 11:18:00,49.0,40.4,30.01,ESE,109,2.1,7.0,72,0.00,BKN,,0.00,253.0,WeatherDisplay:10.37,2013-03-05 19:18:00,
2013-03-05 11:23:00,49.3,40.7,30.01,SE,132,2.2,6.9,72,0.00,BKN,,0.00,264.0,WeatherDisplay:10.37,2013-03-05 19:23:00,
2013-03-05 11:28:00,49.6,40.2,30.01,South,175,10.7,13.8,70,0.00,BKN,,0.00,230.0,WeatherDisplay:10.37,2013-03-05 19:28:00,
2013-03-05 11:33:00,49.2,40.2,30.01,South,169,5.4,6.9,71,0.00,BKN,,0.00,207.0,WeatherDisplay:10.37,2013-03-05 19:33:00,
2013-03-05 11:38:00,49.2,39.8,30.01,WSW,238,0.4,2.3,70,0.00,BKN,,0.00,281.0,WeatherDisplay:10.37,2013-03-05 19:38:00,
2013-03-05 11:43:00,49.2,40.2,30.01,SW,233,11.4,24.2,71,0.00,BKN,,0.00,246.0,WeatherDisplay:10.37,2013-03-05 19:43:00,
2013-03-05 11:48:00,49.2,40.2,30.01,South,188,10.7,13.8,71,0.00,BKN,,0.00,229.0,WeatherDisplay:10.37,2013-03-05 19:48:00,
2013-03-05 11:53:00,49.2,40.2,30.01,SSE,157,8.2,18.4,71,0.00,BKN,,0.00,253.0,WeatherDisplay:10.37,2013-03-05 19:53:00,
2013-03-05 11:58:00,49.2,40.2,30.00,SSE,163,10.7,17.3,71,0.00,BKN,,0.00,311.0,WeatherDisplay:10.37,2013-03-05 19:58:00,
2013-03-05 12:03:00,49.3,40.3,30.00,SSW,211,13.5,24.2,71,0.00,SCT,,0.00,376.0,WeatherDisplay:10.37,2013-03-05 20:03:00,
2013-03-05 12:08:00,49.5,40.5,29.99,South,184,15.1,17.3,71,0.00,BKN,,0.00,369.0,WeatherDisplay:10.37,2013-03-05 20:08:00,
2013-03-05 12:13:00,49.6,40.2,30.00,SE,133,10.7,19.6,70,0.00,BKN,,0.00,311.0,WeatherDisplay:10.37,2013-03-05 20:13:00,
2013-03-05 12:18:00,49.6,40.2,29.99,SSE,167,16.1,21.9,70,0.00,BKN,,0.00,322.0,WeatherDisplay:10.37,2013-03-05 20:18:00,
2013-03-05 12:23:00,49.9,40.5,29.99,South,186,10.8,16.1,70,0.00,BKN,,0.00,348.0,WeatherDisplay:10.37,2013-03-05 20:23:00,
2013-03-05 12:28:00,49.8,40.4,29.99,South,171,13.0,20.7,70,0.00,BKN,,0.00,279.0,WeatherDisplay:10.37,2013-03-05 20:28:00,
2013-03-05 12:33:00,49.6,40.2,29.99,SSW,200,14.8,21.9,70,0.00,BKN,,0.00,287.0,WeatherDisplay:10.37,2013-03-05 20:33:00,
2013-03-05 12:38:00,49.5,40.5,29.98,SSW,203,13.1,19.6,71,0.00,BKN,,0.00,264.0,WeatherDisplay:10.37,2013-03-05 20:38:00,
2013-03-05 12:43:00,49.6,40.6,29.98,SSE,150,16.3,20.7,71,0.00,BKN,,0.00,283.0,WeatherDisplay:10.37,2013-03-05 20:43:00,
2013-03-05 12:48:00,49.7,40.7,29.98,South,190,11.4,19.6,71,0.00,BKN,,0.00,332.0,WeatherDisplay:10.37,2013-03-05 20:48:00,
2013-03-05 12:53:00,49.8,40.8,29.98,SSW,208,8.8,12.7,71,0.00,BKN,,0.00,287.0,WeatherDisplay:10.37,2013-03-05 20:53:00,
2013-03-05 12:59:00,49.9,40.5,29.97,SSE,165,12.3,18.4,70,0.00,BKN,,0.00,278.0,WeatherDisplay:10.37,2013-03-05 20:59:00,
2013-03-05 13:04:00,49.9,40.5,29.98,SSW,199,10.7,21.9,70,0.00,BKN,,0.00,260.0,WeatherDisplay:10.37,2013-03-05 21:04:00,
2013-03-05 13:09:00,49.6,40.2,29.97,SSW,196,11.2,15.0,70,0.00,BKN,,0.00,241.0,WeatherDisplay:10.37,2013-03-05 21:09:00,
2013-03-05 13:14:00,49.7,40.7,29.97,SSE,157,11.7,19.6,71,0.00,BKN,,0.00,229.0,WeatherDisplay:10.37,2013-03-05 21:14:00,
2013-03-05 13:19:00,49.7,40.3,29.97,South,184,11.2,13.8,70,0.00,BKN,,0.00,227.0,WeatherDisplay:10.37,2013-03-05 21:19:00,
2013-03-05 13:24:00,49.7,40.3,29.97,South,179,9.4,16.1,70,0.00,BKN,,0.00,248.0,WeatherDisplay:10.37,2013-03-05 21:24:00,
2013-03-05 13:29:00,49.8,40.4,29.96,SSE,167,13.7,20.7,70,0.00,BKN,,0.00,267.0,WeatherDisplay:10.37,2013-03-05 21:29:00,
2013-03-05 13:34:00,50.0,40.2,29.96,SSW,195,11.4,16.1,69,0.00,BKN,,0.00,246.0,WeatherDisplay:10.37,2013-03-05 21:34:00,
2013-03-05 13:39:00,50.2,40.4,29.96,SSW,196,13.9,18.4,69,0.00,BKN,,0.00,246.0,WeatherDisplay:10.37,2013-03-05 21:39:00,
2013-03-05 13:44:00,50.2,40.0,29.96,SSE,157,16.2,21.9,68,0.00,BKN,,0.00,243.0,WeatherDisplay:10.37,2013-03-05 21:44:00,
2013-03-05 13:49:00,50.2,40.4,29.95,SE,129,8.4,24.2,69,0.00,BKN,,0.00,248.0,WeatherDisplay:10.37,2013-03-05 21:49:00,
2013-03-05 13:54:00,50.3,40.5,29.95,South,188,10.0,17.3,69,0.00,BKN,,0.00,251.0,WeatherDisplay:10.37,2013-03-05 21:54:00,
2013-03-05 13:59:00,50.3,40.5,29.95,SE,146,12.6,18.4,69,0.00,BKN,,0.00,227.0,WeatherDisplay:10.37,2013-03-05 21:59:00,
2013-03-05 14:04:00,50.2,40.4,29.95,SSW,200,14.3,20.7,69,0.00,BKN,,0.00,246.0,WeatherDisplay:10.37,2013-03-05 22:04:00,
2013-03-05 14:09:00,50.2,40.4,29.94,South,178,11.0,25.3,69,0.00,BKN,,0.00,225.0,WeatherDisplay:10.37,2013-03-05 22:09:00,
2013-03-05 14:14:00,50.3,40.5,29.94,South,187,11.6,18.4,69,0.00,BKN,,0.00,248.0,WeatherDisplay:10.37,2013-03-05 22:14:00,
2013-03-05 14:19:00,50.4,40.6,29.94,South,169,6.7,11.5,69,0.00,BKN,,0.00,225.0,WeatherDisplay:10.37,2013-03-05 22:19:00,
2013-03-05 14:24:00,50.4,40.2,29.94,SSW,194,15.5,26.5,68,0.00,BKN,,0.00,241.0,WeatherDisplay:10.37,2013-03-05 22:24:00,
2013-03-05 14:29:00,50.6,40.4,29.94,SE,139,8.7,13.8,68,0.00,BKN,,0.00,257.0,WeatherDisplay:10.37,2013-03-05 22:29:00,
2013-03-05 14:34:00,50.8,40.6,29.93,South,190,8.7,15.0,68,0.00,BKN,,0.00,220.0,WeatherDisplay:10.37,2013-03-05 22:34:00,
2013-03-05 14:39:00,51.0,40.8,29.94,South,190,7.6,11.5,68,0.00,BKN,,0.00,230.0,WeatherDisplay:10.37,2013-03-05 22:39:00,
2013-03-05 14:44:00,51.2,40.6,29.94,South,186,8.5,16.1,67,0.00,BKN,,0.00,207.0,WeatherDisplay:10.37,2013-03-05 22:44:00,
2013-03-05 14:49:00,51.2,40.6,29.94,South,189,15.7,20.7,67,0.00,BKN,,0.00,216.0,WeatherDisplay:10.37,2013-03-05 22:49:00,
2013-03-05 14:54:00,51.2,40.6,29.94,SSW,192,7.9,10.4,67,0.00,BKN,,0.00,229.0,WeatherDisplay:10.37,2013-03-05 22:54:00,
2013-03-05 14:59:00,51.1,40.5,29.93,SSE,150,10.2,13.8,67,0.00,BKN,,0.00,230.0,WeatherDisplay:10.37,2013-03-05 22:59:00,
2013-03-05 15:04:00,51.2,40.6,29.93,South,180,5.0,9.2,67,0.00,BKN,,0.00,221.0,WeatherDisplay:10.37,2013-03-05 23:04:00,
2013-03-05 15:09:00,51.4,40.8,29.93,SE,125,12.6,18.4,67,0.00,BKN,,0.00,195.0,WeatherDisplay:10.37,2013-03-05 23:09:00,
2013-03-05 15:14:00,51.6,40.6,29.93,SW,225,7.3,11.5,66,0.00,BKN,,0.00,221.0,WeatherDisplay:10.37,2013-03-05 23:14:00,
2013-03-05 15:19:00,51.6,40.6,29.93,SSW,198,13.2,18.4,66,0.00,SCT,,0.00,258.0,WeatherDisplay:10.37,2013-03-05 23:19:00,
2013-03-05 15:24:00,51.7,40.7,29.92,SW,217,12.3,20.7,66,0.00,SCT,,0.00,264.0,WeatherDisplay:10.37,2013-03-05 23:24:00,
2013-03-05 15:29:00,51.7,40.7,29.92,SSW,211,13.3,19.6,66,0.00,SCT,,0.00,237.0,WeatherDisplay:10.37,2013-03-05 23:29:00,
2013-03-05 15:34:00,51.7,40.7,29.92,South,172,11.3,20.0,66,0.00,SCT,,0.00,227.0,WeatherDisplay:10.37,2013-03-05 23:34:00,
2013-03-05 15:39:00,51.7,40.7,29.92,SSW,198,11.0,19.6,66,0.00,BKN,,0.00,188.0,WeatherDisplay:10.37,2013-03-05 23:39:00,
2013-03-05 15:44:00,51.7,40.7,29.92,SSW,195,12.9,16.1,66,0.00,BKN,,0.00,123.0,WeatherDisplay:10.37,2013-03-05 23:44:00,
2013-03-05 15:49:00,51.6,40.6,29.92,SSW,199,13.1,20.7,66,0.00,BKN,,0.00,155.0,WeatherDisplay:10.37,2013-03-05 23:49:00,
2013-03-05 15:54:00,51.5,40.5,29.91,SE,139,8.2,18.4,66,0.00,BKN,,0.00,156.0,WeatherDisplay:10.37,2013-03-05 23:54:00,
2013-03-05 15:59:00,51.5,40.5,29.91,SSW,192,12.1,13.8,66,0.00,BKN,,0.00,125.0,WeatherDisplay:10.37,2013-03-05 23:59:00,
2013-03-05 16:04:00,51.5,40.5,29.91,SSE,164,10.6,13.8,66,0.00,BKN,,0.00,148.0,WeatherDisplay:10.37,2013-03-06 00:04:00,
2013-03-05 16:09:00,51.5,40.5,29.90,South,186,15.2,18.4,66,0.00,SCT,,0.00,148.0,WeatherDisplay:10.37,2013-03-06 00:09:00,
2013-03-05 16:14:00,51.5,40.5,29.90,South,189,10.7,15.0,66,0.00,BKN,,0.00,130.0,WeatherDisplay:10.37,2013-03-06 00:14:00,
2013-03-05 16:19:00,51.4,40.4,29.90,SSE,155,14.0,18.4,66,0.00,BKN,,0.00,130.0,WeatherDisplay:10.37,2013-03-06 00:19:00,
2013-03-05 16:24:00,51.3,40.3,29.89,SSW,192,8.9,18.4,66,0.00,FEW,,0.00,186.0,WeatherDisplay:10.37,2013-03-06 00:24:00,
2013-03-05 16:29:00,51.5,40.5,29.89,South,180,10.4,17.3,66,0.00,SCT,,0.00,139.0,WeatherDisplay:10.37,2013-03-06 00:29:00,
2013-03-05 16:34:00,51.5,40.5,29.89,SSE,160,12.1,19.6,66,0.00,BKN,,0.00,86.0,WeatherDisplay:10.37,2013-03-06 00:34:00,
2013-03-05 16:39:00,51.4,40.8,29.88,SSW,198,11.9,17.3,67,0.00,BKN,,0.00,88.0,WeatherDisplay:10.37,2013-03-06 00:39:00,
2013-03-05 16:44:00,51.3,40.7,29.88,South,180,10.8,19.6,67,0.00,SCT,,0.00,107.0,WeatherDisplay:10.37,2013-03-06 00:44:00,
2013-03-05 16:49:00,51.2,40.6,29.88,South,176,11.4,19.6,67,0.00,BKN,,0.00,84.0,WeatherDisplay:10.37,2013-03-06 00:49:00,
2013-03-05 16:54:00,51.2,40.6,29.88,SSW,195,15.6,19.6,67,0.00,BKN,,0.00,77.0,WeatherDisplay:10.37,2013-03-06 00:54:00,
2013-03-05 16:59:00,51.1,40.9,29.88,South,182,15.3,26.5,68,0.00,BKN,,0.00,67.0,WeatherDisplay:10.37,2013-03-06 00:59:00,
2013-03-05 17:04:00,51.0,40.8,29.88,SSW,213,14.4,20.7,68,0.00,BKN,,0.00,40.0,WeatherDisplay:10.37,2013-03-06 01:04:00,
2013-03-05 17:09:00,51.0,41.2,29.87,SSW,206,12.8,21.9,69,0.00,BKN,,0.00,49.0,WeatherDisplay:10.37,2013-03-06 01:09:00,
2013-03-05 17:14:00,50.9,41.1,29.86,SSW,197,15.0,24.2,69,0.00,BKN,,0.00,39.0,WeatherDisplay:10.37,2013-03-06 01:14:00,
2013-03-05 17:19:00,50.8,41.0,29.87,SSW,205,11.7,16.1,69,0.00,BKN,,0.00,28.0,WeatherDisplay:10.37,2013-03-06 01:19:00,
2013-03-05 17:24:00,50.8,41.0,29.86,SSW,205,14.5,18.4,69,0.00,BKN,,0.00,26.0,WeatherDisplay:10.37,2013-03-06 01:24:00,
2013-03-05 17:29:00,50.9,41.1,29.87,South,173,8.8,10.0,69,0.00,BKN,,0.00,23.0,WeatherDisplay:10.37,2013-03-06 01:29:00,
2013-03-05 17:34:00,50.9,41.1,29.87,SSW,198,9.0,12.7,69,0.00,BKN,,0.00,16.0,WeatherDisplay:10.37,2013-03-06 01:34:00,
2013-03-05 17:39:00,50.9,40.7,29.86,SSE,147,13.4,19.6,68,0.00,BKN,,0.00,11.0,WeatherDisplay:10.37,2013-03-06 01:39:00,
2013-03-05 17:44:00,50.9,40.7,29.86,SSW,202,13.5,19.6,68,0.00,BKN,,0.00,7.0,WeatherDisplay:10.37,2013-03-06 01:44:00,
2013-03-05 17:49:00,50.9,40.7,29.86,SE,136,14.8,20.7,68,0.00,BKN,,0.00,5.0,WeatherDisplay:10.37,2013-03-06 01:49:00,
2013-03-05 17:54:00,50.8,41.0,29.85,SSE,155,11.5,16.1,69,0.00,BKN,,0.00,5.0,WeatherDisplay:10.37,2013-03-06 01:54:00,
2013-03-05 17:59:00,50.7,40.9,29.85,SE,143,8.8,11.5,69,0.00,CLR,,0.00,0.0,WeatherDisplay:10.37,2013-03-06 01:59:00,
2013-03-05 18:04:00,50.5,41.1,29.85,ESE,113,7.6,13.8,70,0.00,,,0.00,0.0,WeatherDisplay:10.37,2013-03-06 02:04:00,
2013-03-05 18:09:00,50.3,40.9,29.85,SSE,164,11.8,24.2,70,0.00,,,0.00,0.0,WeatherDisplay:10.37,2013-03-06 02:09:00,
2013-03-05 18:15:00,50.1,41.1,29.85,SSW,205,13.3,27.6,71,0.00,,,0.00,0.0,WeatherDisplay:10.37,2013-03-06 02:15:00,
2013-03-05 18:21:00,50.2,40.8,29.85,SE,124,12.9,19.6,70,0.00,,,0.00,0.0,WeatherDisplay:10.37,2013-03-06 02:21:00,
2013-03-05 18:26:00,50.1,41.1,29.84,SE,139,14.6,20.7,71,0.00,,,0.00,0.0,WeatherDisplay:10.37,2013-03-06 02:26:00,
2013-03-05 18:31:00,50.1,41.1,29.85,SSE,149,12.2,18.4,71,0.00,,,0.00,0.0,WeatherDisplay:10.37,2013-03-06 02:31:00,
2013-03-05 18:36:00,50.1,41.1,29.84,South,180,15.2,24.2,71,0.00,,,0.00,0.0,WeatherDisplay:10.37,2013-03-06 02:36:00,
2013-03-05 18:41:00,50.0,41.0,29.84,SSE,164,19.4,31.1,71,0.00,,,0.00,0.0,WeatherDisplay:10.37,2013-03-06 02:41:00,
2013-03-05 18:46:00,50.0,41.0,29.85,South,173,10.8,19.6,71,0.00,,,0.00,0.0,WeatherDisplay:10.37,2013-03-06 02:46:00,
2013-03-05 18:51:00,50.1,41.1,29.85,South,190,14.2,35.7,71,0.00,,,0.00,0.0,WeatherDisplay:10.37,2013-03-06 02:51:00,
2013-03-05 18:56:00,50.2,41.2,29.84,South,180,14.0,23.0,71,0.00,,,0.00,0.0,WeatherDisplay:10.37,2013-03-06 02:56:00,
2013-03-05 19:01:00,50.3,40.9,29.84,South,175,20.5,27.6,70,0.00,,,0.00,0.0,WeatherDisplay:10.37,2013-03-06 03:01:00,
2013-03-05 19:06:00,50.5,41.1,29.84,SSE,160,12.2,20.7,70,0.00,,,0.00,0.0,WeatherDisplay:10.37,2013-03-06 03:06:00,
2013-03-05 19:11:00,50.6,41.2,29.84,SSW,198,18.8,24.2,70,0.00,,,0.00,0.0,WeatherDisplay:10.37,2013-03-06 03:11:00,
2013-03-05 19:16:00,50.7,41.3,29.84,South,182,15.6,23.0,70,0.00,,,0.00,0.0,WeatherDisplay:10.37,2013-03-06 03:16:00,
2013-03-05 19:21:00,50.7,40.9,29.84,South,184,14.5,25.3,69,0.00,,,0.00,0.0,WeatherDisplay:10.37,2013-03-06 03:21:00,
2013-03-05 19:26:00,50.7,41.3,29.83,SSW,200,14.6,20.7,70,0.00,,,0.00,0.0,WeatherDisplay:10.37,2013-03-06 03:26:00,
2013-03-05 19:31:00,50.6,41.2,29.83,SSE,153,15.1,18.4,70,0.00,,,0.00,0.0,WeatherDisplay:10.37,2013-03-06 03:31:00,
2013-03-05 19:36:00,50.7,41.3,29.83,South,169,14.1,19.6,70,0.00,,,0.00,0.0,WeatherDisplay:10.37,2013-03-06 03:36:00,
2013-03-05 19:41:00,50.8,41.4,29.82,SSE,167,12.8,18.4,70,0.00,,,0.00,0.0,WeatherDisplay:10.37,2013-03-06 03:41:00,
2013-03-05 19:46:00,50.8,41.0,29.82,South,183,14.8,23.0,69,0.00,,,0.00,0.0,WeatherDisplay:10.37,2013-03-06 03:46:00,
2013-03-05 19:51:00,50.9,41.1,29.82,SSE,168,11.8,18.4,69,0.00,,,0.00,0.0,WeatherDisplay:10.37,2013-03-06 03:51:00,
2013-03-05 19:56:00,50.9,41.1,29.82,SSE,155,12.9,17.3,69,0.00,,,0.00,0.0,WeatherDisplay:10.37,2013-03-06 03:56:00,
2013-03-05 20:01:00,51.0,41.2,29.82,SSE,167,15.8,21.9,69,0.00,,,0.00,0.0,WeatherDisplay:10.37,2013-03-06 04:01:00,
2013-03-05 20:06:00,51.1,41.3,29.82,SSW,201,18.5,34.5,69,0.00,,,0.00,0.0,WeatherDisplay:10.37,2013-03-06 04:06:00,
2013-03-05 20:11:00,51.2,41.4,29.82,South,184,10.7,16.1,69,0.00,,,0.00,0.0,WeatherDisplay:10.37,2013-03-06 04:11:00,
2013-03-05 20:16:00,51.2,41.4,29.82,SSW,192,11.3,11.5,69,0.00,,,0.00,0.0,WeatherDisplay:10.37,2013-03-06 04:16:00,
2013-03-05 20:21:00,51.2,41.4,29.83,SSE,148,13.8,19.6,69,0.00,,,0.00,0.0,WeatherDisplay:10.37,2013-03-06 04:21:00,
2013-03-05 20:26:00,51.0,41.6,29.83,SSE,167,9.3,16.1,70,0.01,RA,,0.01,0.0,WeatherDisplay:10.37,2013-03-06 04:26:00,
2013-03-05 20:31:00,50.6,42.3,29.83,SSW,195,14.2,23.0,73,0.03,RA,,0.03,0.0,WeatherDisplay:10.37,2013-03-06 04:31:00,
2013-03-05 20:37:00,50.1,42.1,29.83,South,179,15.2,32.2,74,0.05,RA,,0.05,0.0,WeatherDisplay:10.37,2013-03-06 04:37:00,
2013-03-05 20:42:00,49.8,42.5,29.83,SW,225,12.1,16.0,76,0.06,RA,,0.06,0.0,WeatherDisplay:10.37,2013-03-06 04:42:00,
2013-03-05 20:47:00,49.5,42.6,29.82,South,179,11.7,18.4,77,0.09,RA,,0.09,0.0,WeatherDisplay:10.37,2013-03-06 04:47:00,
2013-03-05 20:52:00,49.4,42.8,29.82,South,175,9.3,13.0,78,0.10,RA,,0.10,0.0,WeatherDisplay:10.37,2013-03-06 04:52:00,
2013-03-05 20:57:00,49.3,42.7,29.82,SSE,155,9.1,18.4,78,0.11,RA,,0.11,0.0,WeatherDisplay:10.37,2013-03-06 04:57:00,
2013-03-05 21:00:00,49.2,43.0,29.82,SE,146,10.0,11.5,79,0.12,RA,,0.12,0.0,WeatherDisplay:10.37,2013-03-06 05:00:00,
2013-03-05 21:01:00,49.2,43.0,29.82,SSE,167,7.9,11.5,79,0.12,RA,,0.12,0.0,WeatherDisplay:10.37,2013-03-06 05:01:00,
2013-03-05 21:02:00,49.2,43.0,29.83,SE,126,9.6,10.4,79,0.12,RA,,0.12,0.0,WeatherDisplay:10.37,2013-03-06 05:02:00,
2013-03-05 21:03:00,49.2,43.0,29.82,SSW,194,10.6,15.0,79,0.12,RA,,0.13,0.0,WeatherDisplay:10.37,2013-03-06 05:03:00,
2013-03-05 21:08:00,49.1,42.9,29.83,SE,138,8.4,15.0,79,0.14,RA,,0.15,0.0,WeatherDisplay:10.37,2013-03-06 05:08:00,
2013-03-05 21:13:00,49.0,43.1,29.83,SSW,194,13.0,21.9,80,0.16,RA,,0.16,0.0,WeatherDisplay:10.37,2013-03-06 05:13:00,
2013-03-05 21:18:00,48.9,43.0,29.83,South,177,14.4,20.7,80,0.17,RA,,0.17,0.0,WeatherDisplay:10.37,2013-03-06 05:18:00,
2013-03-05 21:23:00,48.8,42.9,29.83,South,190,10.6,15.0,80,0.18,RA,,0.18,0.0,WeatherDisplay:10.37,2013-03-06 05:23:00,
2013-03-05 21:28:00,48.8,42.9,29.82,SSE,163,12.0,13.8,80,0.17,RA,,0.18,0.0,WeatherDisplay:10.37,2013-03-06 05:28:00,
2013-03-05 21:33:00,48.7,43.1,29.82,SSW,192,10.2,12.7,81,0.16,RA,,0.20,0.0,WeatherDisplay:10.37,2013-03-06 05:33:00,
2013-03-05 21:38:00,48.8,43.2,29.82,ESE,115,12.7,23.0,81,0.16,RA,,0.21,0.0,WeatherDisplay:10.37,2013-03-06 05:38:00,
2013-03-05 21:43:00,48.8,43.2,29.82,South,188,16.0,29.0,81,0.16,RA,,0.22,0.0,WeatherDisplay:10.37,2013-03-06 05:43:00,
2013-03-05 21:48:00,48.8,43.2,29.82,SE,139,15.2,26.5,81,0.13,RA,,0.22,0.0,WeatherDisplay:10.37,2013-03-06 05:48:00,
2013-03-05 21:53:00,48.9,43.3,29.82,SSW,194,13.8,24.2,81,0.12,,,0.22,0.0,WeatherDisplay:10.37,2013-03-06 05:53:00,
2013-03-05 21:58:00,48.9,43.3,29.81,South,175,13.7,20.7,81,0.12,RA,,0.23,0.0,WeatherDisplay:10.37,2013-03-06 05:58:00,
2013-03-05 22:03:00,48.9,43.3,29.82,SSW,192,11.3,17.3,81,0.11,RA,,0.23,0.0,WeatherDisplay:10.37,2013-03-06 06:03:00,
2013-03-05 22:08:00,48.9,43.3,29.83,South,186,9.9,11.5,81,0.09,,,0.23,0.0,WeatherDisplay:10.37,2013-03-06 06:08:00,
2013-03-05 22:13:00,48.9,43.3,29.82,South,171,15.2,19.6,81,0.07,,,0.23,0.0,WeatherDisplay:10.37,2013-03-06 06:13:00,
2013-03-05 22:18:00,49.0,43.4,29.82,SSW,194,12.8,12.8,81,0.06,,,0.23,0.0,WeatherDisplay:10.37,2013-03-06 06:18:00,
2013-03-05 22:23:00,49.0,43.4,29.82,South,190,17.2,25.3,81,0.05,,,0.23,0.0,WeatherDisplay:10.37,2013-03-06 06:23:00,
2013-03-05 22:28:00,49.1,43.5,29.81,South,180,17.5,25.3,81,0.05,,,0.23,0.0,WeatherDisplay:10.37,2013-03-06 06:28:00,
2013-03-05 22:33:00,49.2,43.3,29.81,South,183,19.5,34.5,80,0.03,,,0.23,0.0,WeatherDisplay:10.37,2013-03-06 06:33:00,
2013-03-05 22:38:00,49.2,43.3,29.82,SSW,207,12.1,19.6,80,0.03,,,0.23,0.0,WeatherDisplay:10.37,2013-03-06 06:38:00,
2013-03-05 22:43:00,49.2,43.3,29.82,South,176,19.3,31.1,80,0.01,,,0.23,0.0,WeatherDisplay:10.37,2013-03-06 06:43:00,
2013-03-05 22:48:00,49.2,43.3,29.81,SSW,207,20.4,28.8,80,0.01,,,0.24,0.0,WeatherDisplay:10.37,2013-03-06 06:48:00,
2013-03-05 22:53:00,49.0,43.4,29.81,SSW,192,13.4,17.3,81,0.02,RA,,0.24,0.0,WeatherDisplay:10.37,2013-03-06 06:53:00,
2013-03-05 22:58:00,48.9,43.3,29.81,SSW,202,18.8,21.9,81,0.01,RA,,0.24,0.0,WeatherDisplay:10.37,2013-03-06 06:58:00,
2013-03-05 23:03:00,48.8,43.2,29.82,SSW,209,18.4,26.5,81,0.03,RA,,0.26,0.0,WeatherDisplay:10.37,2013-03-06 07:03:00,
2013-03-05 23:08:00,48.8,43.5,29.82,South,181,18.3,23.0,82,0.04,RA,,0.28,0.0,WeatherDisplay:10.37,2013-03-06 07:08:00,
2013-03-05 23:13:00,48.8,43.5,29.82,South,177,25.9,29.9,82,0.06,RA,,0.29,0.0,WeatherDisplay:10.37,2013-03-06 07:13:00,
2013-03-05 23:18:00,48.8,43.5,29.81,SW,234,21.3,41.4,82,0.06,RA,,0.29,0.0,WeatherDisplay:10.37,2013-03-06 07:18:00,
2013-03-05 23:23:00,48.8,43.5,29.82,South,188,23.8,40.3,82,0.06,,,0.29,0.0,WeatherDisplay:10.37,2013-03-06 07:23:00,
2013-03-05 23:28:00,48.8,43.5,29.82,South,173,22.6,38.0,82,0.06,,,0.29,0.0,WeatherDisplay:10.37,2013-03-06 07:28:00,
2013-03-05 23:33:00,48.8,43.5,29.81,SE,130,19.1,32.2,82,0.06,,,0.29,0.0,WeatherDisplay:10.37,2013-03-06 07:33:00,
2013-03-05 23:38:00,48.7,43.5,29.82,SSW,211,16.4,34.5,82,0.07,RA,,0.30,0.0,WeatherDisplay:10.37,2013-03-06 07:38:00,
2013-03-05 23:43:00,48.5,43.6,29.82,SSW,202,20.3,32.2,83,0.08,RA,,0.31,0.0,WeatherDisplay:10.37,2013-03-06 07:43:00,
2013-03-05 23:48:00,48.4,43.5,29.81,SSW,192,21.9,40.3,83,0.08,RA,,0.31,0.0,WeatherDisplay:10.37,2013-03-06 07:48:00,
2013-03-05 23:53:00,48.5,43.6,29.82,SSE,167,24.0,32.2,83,0.07,,,0.31,0.0,WeatherDisplay:10.37,2013-03-06 07:53:00,
2013-03-05 23:58:00,48.5,43.6,29.81,SSW,194,12.7,24.0,83,0.08,RA,,0.32,0.0,WeatherDisplay:10.37,2013-03-06 07:58:00,